createdAt,value
2022-10-25T00:01:39.741Z,27.33
2022-10-25T00:04:07.363Z,25.00
2022-10-25T00:06:34.926Z,27.23
2022-10-25T00:09:02.415Z,27.95
2022-10-25T00:11:31.323Z,27.20
2022-10-25T00:14:01.791Z,28.52
2022-10-25T00:16:32.631Z,26.35
2022-10-25T00:19:00.135Z,25.35
2022-10-25T00:21:27.730Z,28.33
2022-10-25T00:23:55.178Z,22.75
2022-10-25T00:26:22.706Z,28.92
2022-10-25T00:28:53.868Z,26.10
2022-10-25T00:31:22.444Z,26.63
2022-10-25T00:33:50.072Z,28.85
2022-10-25T00:36:20.680Z,29.15
2022-10-25T00:38:48.587Z,31.77
2022-10-25T00:41:19.549Z,29.27
2022-10-25T00:43:53.232Z,34.10
2022-10-25T00:46:27.589Z,28.55
2022-10-25T00:49:17.696Z,29.58
2022-10-25T00:51:53.749Z,26.52
2022-10-25T00:54:26.142Z,30.25
2022-10-25T00:56:54.884Z,30.20
2022-10-25T00:59:26.287Z,30.10
2022-10-25T01:01:55.538Z,27.27
2022-10-25T01:04:29.007Z,23.73
2022-10-25T01:06:57.492Z,30.92
2022-10-25T01:09:31.953Z,29.20
2022-10-25T01:11:59.799Z,28.57
2022-10-25T01:14:28.082Z,30.13
2022-10-25T01:17:01.336Z,28.30
2022-10-25T01:20:05.118Z,27.90
2022-10-25T01:23:03.895Z,25.48
2022-10-25T01:26:04.116Z,27.00
2022-10-25T01:28:48.016Z,28.02
2022-10-25T01:31:31.658Z,29.13
2022-10-25T01:34:10.918Z,29.77
2022-10-25T01:36:56.929Z,32.67
2022-10-25T01:39:41.178Z,31.85
2022-10-25T01:42:30.062Z,30.50
2022-10-25T01:45:06.434Z,28.95
2022-10-25T01:47:47.346Z,24.77
2022-10-25T01:50:26.208Z,24.42
2022-10-25T01:55:27.982Z,29.45
2022-10-25T01:58:32.507Z,33.72
2022-10-25T02:01:27.813Z,32.70
2022-10-25T02:04:06.886Z,30.50
2022-10-25T02:06:55.860Z,31.60
2022-10-25T02:10:03.947Z,31.75
2022-10-25T02:12:43.484Z,33.15
2022-10-25T02:15:32.430Z,35.47
2022-10-25T02:18:16.177Z,34.97
2022-10-25T02:20:48.352Z,33.47
2022-10-25T02:23:27.736Z,31.17
2022-10-25T02:26:12.874Z,31.55
2022-10-25T02:28:52.911Z,32.20
2022-10-25T02:31:51.038Z,31.23
2022-10-25T02:34:23.799Z,28.33
2022-10-25T02:36:57.175Z,26.20
2022-10-25T02:39:40.198Z,24.33
2022-10-25T02:42:08.099Z,23.00
2022-10-25T02:44:43.687Z,20.98
2022-10-25T02:47:12.217Z,19.88
2022-10-25T02:50:30.983Z,17.13
2022-10-25T02:53:31.993Z,15.75
2022-10-25T02:56:27.200Z,17.20
2022-10-25T03:03:22.376Z,15.23
2022-10-25T03:05:53.578Z,16.25
2022-10-25T03:09:18.446Z,17.00
2022-10-25T03:11:26.536Z,15.60
2022-10-25T03:14:08.536Z,19.65
2022-10-25T03:17:16.861Z,16.55
2022-10-25T03:19:44.711Z,19.05
2022-10-25T03:22:12.576Z,16.70
2022-10-25T03:24:45.263Z,15.48
2022-10-25T03:27:17.876Z,14.93
2022-10-25T03:33:36.400Z,18.77
2022-10-25T03:39:54.276Z,19.30
2022-10-25T03:42:23.446Z,16.85
2022-10-25T03:44:55.794Z,22.67
2022-10-25T03:47:27.921Z,20.00
2022-10-25T03:50:02.080Z,20.55
2022-10-25T03:52:32.549Z,20.20
2022-10-25T03:55:15.166Z,21.98
2022-10-25T03:57:46.829Z,23.27
2022-10-25T04:00:17.755Z,17.63
2022-10-25T04:06:24.997Z,20.50
2022-10-25T04:08:56.014Z,16.23
2022-10-25T04:11:25.668Z,18.17
2022-10-25T04:13:54.491Z,18.48
2022-10-25T04:16:32.291Z,18.90
2022-10-25T04:18:59.878Z,18.10
2022-10-25T04:21:29.002Z,18.70
2022-10-25T04:23:58.324Z,21.58
2022-10-25T04:27:15.337Z,16.60
2022-10-25T04:29:47.271Z,20.80
2022-10-25T04:32:15.054Z,20.35
2022-10-25T04:34:42.766Z,21.92
2022-10-25T04:37:10.438Z,19.42
2022-10-25T04:39:38.045Z,19.48
2022-10-25T04:42:12.382Z,16.60
2022-10-25T04:44:40.100Z,14.93
2022-10-25T04:47:07.778Z,15.63
2022-10-25T04:49:35.630Z,16.00
2022-10-25T04:52:05.689Z,18.65
2022-10-25T04:54:42.354Z,16.65
2022-10-25T04:57:12.952Z,22.52
2022-10-25T05:03:13.983Z,20.27
2022-10-25T05:05:41.555Z,20.52
2022-10-25T05:08:11.434Z,19.92
2022-10-25T05:12:39.384Z,20.58
2022-10-25T05:14:26.156Z,19.52
2022-10-25T05:16:56.800Z,18.23
2022-10-25T05:19:24.483Z,18.35
2022-10-25T05:21:58.598Z,16.58
2022-10-25T05:24:27.181Z,18.05
2022-10-25T05:26:57.830Z,15.27
2022-10-25T05:33:04.049Z,15.32
2022-10-25T05:35:37.235Z,23.70
2022-10-25T05:38:10.206Z,20.50
2022-10-25T05:40:40.323Z,21.17
2022-10-25T05:43:15.295Z,20.15
2022-10-25T05:45:45.150Z,18.92
2022-10-25T05:49:09.550Z,18.95
2022-10-25T05:51:39.680Z,15.70
2022-10-25T05:54:57.275Z,19.85
2022-10-25T05:57:30.847Z,17.98
2022-10-25T05:59:58.485Z,21.77
2022-10-25T06:02:29.229Z,19.67
2022-10-25T06:04:58.190Z,22.77
2022-10-25T06:07:29.410Z,21.92
2022-10-25T06:09:59.554Z,21.48
2022-10-25T06:12:40.186Z,18.08
2022-10-25T06:15:10.390Z,18.60
2022-10-25T06:17:38.231Z,15.27
2022-10-25T06:21:10.589Z,19.88
2022-10-25T06:23:42.307Z,15.35
2022-10-25T06:26:15.853Z,13.10
2022-10-25T06:28:48.152Z,15.48
2022-10-25T06:31:19.419Z,12.88
2022-10-25T06:33:47.752Z,11.52
2022-10-25T06:36:17.826Z,10.75
2022-10-25T06:38:46.326Z,9.32
2022-10-25T06:41:18.644Z,8.57
2022-10-25T06:43:46.248Z,9.73
2022-10-25T06:46:27.258Z,8.70
2022-10-25T06:48:57.449Z,6.85
2022-10-25T06:51:26.530Z,9.70
2022-10-25T06:53:58.351Z,9.88
2022-10-25T06:56:27.429Z,6.22
2022-10-25T06:58:55.605Z,6.18
2022-10-25T07:01:25.037Z,4.55
2022-10-25T07:03:54.557Z,4.10
2022-10-25T07:06:27.379Z,7.30
2022-10-25T07:08:58.834Z,6.05
2022-10-25T07:11:29.941Z,5.95
2022-10-25T07:13:59.624Z,3.22
2022-10-25T07:16:28.556Z,4.20
2022-10-25T07:19:03.228Z,3.95
2022-10-25T07:21:32.580Z,4.25
2022-10-25T07:24:00.575Z,8.15
2022-10-25T07:26:33.449Z,12.35
2022-10-25T07:29:02.692Z,10.73
2022-10-25T07:31:32.893Z,10.52
2022-10-25T07:34:02.259Z,13.57
2022-10-25T07:36:30.478Z,11.90
2022-10-25T07:38:58.226Z,12.82
2022-10-25T07:41:26.091Z,12.90
2022-10-25T07:43:53.964Z,12.98
2022-10-25T07:46:21.951Z,15.20
2022-10-25T07:48:49.418Z,13.18
2022-10-25T07:51:17.857Z,16.50
2022-10-25T07:53:45.313Z,14.00
2022-10-25T07:56:17.559Z,12.02
2022-10-25T07:58:48.262Z,12.75
2022-10-25T08:01:20.605Z,10.45
2022-10-25T08:03:48.475Z,12.25
2022-10-25T08:06:15.964Z,10.63
2022-10-25T08:08:44.348Z,9.68
2022-10-25T08:11:13.234Z,10.90
2022-10-25T08:13:40.886Z,10.07
2022-10-25T08:16:08.672Z,9.50
2022-10-25T08:18:36.097Z,10.45
2022-10-25T08:21:04.458Z,12.20
2022-10-25T08:23:33.005Z,10.05
2022-10-25T08:26:01.409Z,9.93
2022-10-25T08:28:31.429Z,10.88
2022-10-25T08:31:01.364Z,8.85
2022-10-25T08:33:30.079Z,10.38
2022-10-25T08:36:02.303Z,8.32
2022-10-25T08:38:30.250Z,7.68
2022-10-25T08:41:25.240Z,6.82
2022-10-25T08:44:29.845Z,8.73
2022-10-25T08:47:06.273Z,5.95
2022-10-25T08:50:02.016Z,7.13
2022-10-25T08:52:38.814Z,6.00
2022-10-25T08:55:16.264Z,6.55
2022-10-25T08:57:47.192Z,4.68
2022-10-25T09:00:22.513Z,6.00
2022-10-25T09:02:58.558Z,4.32
2022-10-25T09:05:37.954Z,5.47
2022-10-25T09:08:26.681Z,4.78
2022-10-25T09:11:12.484Z,4.30
2022-10-25T09:13:52.103Z,6.50
2022-10-25T09:16:27.495Z,3.03
2022-10-25T09:18:57.225Z,3.85
2022-10-25T09:21:53.165Z,3.80
2022-10-25T09:27:24.963Z,3.65
2022-10-25T09:30:05.071Z,3.88
2022-10-25T09:32:43.469Z,4.70
2022-10-25T09:35:23.008Z,3.65
2022-10-25T09:38:17.528Z,3.83
2022-10-25T09:40:49.344Z,4.30
2022-10-25T09:43:44.012Z,3.58
2022-10-25T09:46:20.978Z,2.35
2022-10-25T09:48:57.652Z,4.55
2022-10-25T09:51:39.613Z,3.30
2022-10-25T09:54:17.979Z,2.88
2022-10-25T09:56:45.447Z,2.33
2022-10-25T09:59:14.970Z,2.42
2022-10-25T10:01:43.215Z,3.97
2022-10-25T10:04:21.472Z,6.43
2022-10-25T10:06:52.443Z,4.70
2022-10-25T10:09:20.136Z,3.50
2022-10-25T10:11:48.813Z,3.03
2022-10-25T10:14:33.700Z,4.85
2022-10-25T10:17:02.178Z,1.83
2022-10-25T10:19:30.346Z,3.60
2022-10-25T10:22:01.400Z,3.67
2022-10-25T10:24:32.430Z,2.88
2022-10-25T10:27:02.800Z,4.78
2022-10-25T10:29:55.659Z,3.30
2022-10-25T10:32:26.861Z,4.80
2022-10-25T10:34:57.297Z,1.95
2022-10-25T10:37:29.151Z,2.58
2022-10-25T10:40:16.843Z,1.50
2022-10-25T10:42:44.346Z,2.80
2022-10-25T10:45:12.349Z,2.42
2022-10-25T10:47:48.580Z,3.25
2022-10-25T10:50:25.784Z,3.90
2022-10-25T10:52:55.226Z,3.38
2022-10-25T10:55:32.944Z,4.55
2022-10-25T10:58:22.280Z,4.43
2022-10-25T11:00:57.110Z,3.95
2022-10-25T11:03:36.567Z,4.90
2022-10-25T11:06:07.599Z,7.50
2022-10-25T11:08:35.172Z,4.07
2022-10-25T11:11:20.448Z,3.90
2022-10-25T11:13:58.700Z,4.22
2022-10-25T11:16:39.177Z,3.08
2022-10-25T11:19:18.637Z,3.25
2022-10-25T11:21:46.247Z,4.25
2022-10-25T11:24:40.777Z,4.53
2022-10-25T11:27:33.007Z,3.47
2022-10-25T11:30:16.606Z,3.55
2022-10-25T11:33:16.019Z,2.95
2022-10-25T11:35:56.412Z,4.28
2022-10-25T11:38:47.531Z,5.38
2022-10-25T11:41:42.614Z,4.28
2022-10-25T11:44:18.784Z,3.67
2022-10-25T11:46:48.837Z,3.65
2022-10-25T11:50:18.721Z,4.80
2022-10-25T11:52:54.515Z,3.85
2022-10-25T11:55:46.298Z,3.17
2022-10-25T11:58:43.652Z,5.88
2022-10-25T12:01:26.552Z,5.53
2022-10-25T12:04:32.779Z,5.07
2022-10-25T12:07:21.732Z,5.03
2022-10-25T12:10:14.049Z,5.47
2022-10-25T12:12:53.058Z,5.43
2022-10-25T12:15:48.695Z,4.63
2022-10-25T12:18:26.303Z,7.60
2022-10-25T12:20:55.820Z,6.18
2022-10-25T12:23:25.645Z,4.90
2022-10-25T12:26:05.675Z,6.45
2022-10-25T12:28:45.055Z,9.93
2022-10-25T12:31:18.782Z,9.30
2022-10-25T12:34:08.979Z,7.55
2022-10-25T12:36:38.538Z,6.10
2022-10-25T12:39:20.904Z,7.70
2022-10-25T12:41:56.881Z,8.50
2022-10-25T12:45:12.845Z,7.70
2022-10-25T12:47:43.004Z,7.88
2022-10-25T12:50:40.292Z,7.70
2022-10-25T12:53:35.468Z,6.75
2022-10-25T12:56:02.887Z,9.10
2022-10-25T12:58:50.472Z,10.43
2022-10-25T13:01:33.383Z,10.43
2022-10-25T13:04:18.127Z,9.15
2022-10-25T13:06:47.832Z,8.95
2022-10-25T13:09:21.009Z,10.57
2022-10-25T13:12:00.012Z,8.45
2022-10-25T13:14:38.693Z,10.48
2022-10-25T13:17:18.175Z,8.23
2022-10-25T13:19:54.536Z,12.63
2022-10-25T13:22:37.422Z,12.07
2022-10-25T13:25:08.996Z,9.25
2022-10-25T13:27:36.990Z,10.70
2022-10-25T13:30:24.437Z,10.50
2022-10-25T13:33:16.545Z,9.23
2022-10-25T13:35:43.960Z,9.43
2022-10-25T13:38:20.832Z,8.93
2022-10-25T13:41:17.169Z,9.52
2022-10-25T13:44:00.263Z,10.98
2022-10-25T13:46:40.374Z,8.60
2022-10-25T13:49:42.740Z,8.68
2022-10-25T13:52:34.506Z,8.43
2022-10-25T13:55:26.260Z,10.10
2022-10-25T13:57:56.135Z,9.65
2022-10-25T14:00:41.518Z,6.38
2022-10-25T14:05:54.401Z,6.50
2022-10-25T14:08:30.186Z,6.03
2022-10-25T14:11:09.405Z,9.32
2022-10-25T14:13:48.387Z,7.28
2022-10-25T14:16:34.668Z,6.57
2022-10-25T14:19:37.298Z,6.78
2022-10-25T14:22:14.851Z,7.72
2022-10-25T14:24:44.861Z,8.02
2022-10-25T14:27:35.969Z,7.53
2022-10-25T14:30:29.561Z,9.07
2022-10-25T14:33:05.646Z,8.57
2022-10-25T14:35:36.122Z,7.55
2022-10-25T14:38:15.372Z,6.97
2022-10-25T14:40:50.535Z,6.65
2022-10-25T14:43:38.875Z,8.07
2022-10-25T14:46:06.205Z,7.32
2022-10-25T14:48:33.858Z,6.10
2022-10-25T14:51:06.680Z,7.32
2022-10-25T14:53:35.890Z,9.45
2022-10-25T14:56:05.966Z,7.72
2022-10-25T14:58:42.411Z,5.70
2022-10-25T15:01:12.596Z,6.50
2022-10-25T15:03:43.533Z,6.30
2022-10-25T15:06:13.364Z,7.32
2022-10-25T15:08:42.312Z,10.88
2022-10-25T15:11:16.124Z,8.80
2022-10-25T15:13:48.810Z,9.23
2022-10-25T15:16:28.108Z,8.27
2022-10-25T15:19:05.971Z,9.50
2022-10-25T15:21:48.584Z,8.05
2022-10-25T15:24:16.342Z,8.60
2022-10-25T15:27:02.683Z,9.43
2022-10-25T15:29:42.095Z,9.77
2022-10-25T15:32:15.288Z,8.77
2022-10-25T15:34:45.917Z,9.00
2022-10-25T15:37:15.322Z,10.30
2022-10-25T15:39:43.543Z,8.77
2022-10-25T15:42:14.399Z,9.77
2022-10-25T15:44:44.121Z,7.93
2022-10-25T15:47:27.261Z,8.88
2022-10-25T15:49:54.980Z,10.00
2022-10-25T15:52:22.865Z,7.47
2022-10-25T15:54:50.416Z,8.80
2022-10-25T15:57:18.204Z,8.63
2022-10-25T15:59:45.588Z,8.20
2022-10-25T16:02:20.175Z,7.53
2022-10-25T16:04:48.034Z,6.03
2022-10-25T16:07:16.204Z,6.70
2022-10-25T16:09:44.134Z,7.68
2022-10-25T16:12:20.484Z,6.20
2022-10-25T16:14:49.852Z,9.13
2022-10-25T16:17:17.223Z,7.70
2022-10-25T16:19:44.741Z,10.43
2022-10-25T16:22:12.112Z,11.68
2022-10-25T16:24:39.572Z,5.85
2022-10-25T16:27:07.104Z,7.80
2022-10-25T16:29:34.570Z,8.45
2022-10-25T16:32:04.157Z,7.93
2022-10-25T16:34:31.992Z,8.30
2022-10-25T16:36:59.846Z,6.47
2022-10-25T16:39:27.389Z,8.57
2022-10-25T16:41:56.794Z,5.57
2022-10-25T16:44:24.225Z,8.45
2022-10-25T16:46:51.669Z,7.82
2022-10-25T16:49:19.140Z,7.50
2022-10-25T16:51:46.574Z,8.40
2022-10-25T16:54:15.628Z,10.35
2022-10-25T16:56:43.265Z,7.75
2022-10-25T16:59:10.745Z,6.25
2022-10-25T17:01:43.698Z,9.30
2022-10-25T17:04:13.953Z,9.95
2022-10-25T17:06:42.990Z,5.93
2022-10-25T17:09:11.437Z,6.07
2022-10-25T17:11:39.388Z,12.32
2022-10-25T17:14:13.613Z,7.78
2022-10-25T17:16:48.430Z,8.00
2022-10-25T17:19:20.989Z,7.63
2022-10-25T17:21:48.643Z,8.02
2022-10-25T17:24:16.493Z,8.55
2022-10-25T17:26:44.303Z,14.27
2022-10-25T17:29:12.062Z,11.18
2022-10-25T17:31:39.697Z,8.88
2022-10-25T17:34:10.713Z,11.60
2022-10-25T17:36:38.778Z,13.73
2022-10-25T17:39:08.428Z,11.90
2022-10-25T17:41:41.612Z,12.90
2022-10-25T17:44:15.656Z,15.38
2022-10-25T17:46:46.588Z,11.90
2022-10-25T17:49:17.826Z,17.02
2022-10-25T17:51:47.876Z,8.75
2022-10-25T17:54:17.953Z,16.13
2022-10-25T17:57:17.951Z,11.57
2022-10-25T17:59:51.330Z,13.57
2022-10-25T18:02:20.671Z,12.30
2022-10-25T18:05:15.441Z,7.28
2022-10-25T18:07:44.085Z,6.28
2022-10-25T18:10:17.587Z,7.20
2022-10-25T18:13:00.473Z,12.02
2022-10-25T18:15:53.856Z,5.57
2022-10-25T18:18:34.171Z,7.80
2022-10-25T18:21:11.852Z,7.63
2022-10-25T18:23:42.125Z,9.48
2022-10-25T18:26:18.110Z,7.97
2022-10-25T18:28:50.328Z,6.72
2022-10-25T18:31:21.318Z,8.40
2022-10-25T18:33:49.650Z,9.13
2022-10-25T18:36:19.707Z,12.57
2022-10-25T18:38:53.887Z,10.40
2022-10-25T18:41:24.690Z,11.95
2022-10-25T18:43:55.146Z,12.27
2022-10-25T18:46:25.337Z,13.60
2022-10-25T18:48:54.219Z,11.63
2022-10-25T18:51:26.758Z,13.32
2022-10-25T18:53:56.732Z,13.80
2022-10-25T18:56:25.501Z,17.77
2022-10-25T18:58:54.936Z,13.73
2022-10-25T19:01:24.667Z,10.65
2022-10-25T19:03:52.588Z,12.55
2022-10-25T19:06:20.566Z,10.32
2022-10-25T19:08:50.749Z,9.45
2022-10-25T19:11:22.483Z,12.75
2022-10-25T19:13:58.886Z,11.80
2022-10-25T19:16:26.873Z,9.35
2022-10-25T19:18:57.082Z,9.65
2022-10-25T19:21:24.769Z,14.15
2022-10-25T19:23:54.338Z,11.93
2022-10-25T19:26:23.742Z,13.15
2022-10-25T19:29:02.474Z,11.02
2022-10-25T19:31:32.970Z,17.17
2022-10-25T19:34:03.445Z,10.20
2022-10-25T19:36:33.326Z,9.43
2022-10-25T19:39:01.702Z,12.55
2022-10-25T19:41:34.541Z,12.43
2022-10-25T19:44:02.399Z,14.80
2022-10-25T19:46:32.742Z,11.40
2022-10-25T19:49:00.487Z,9.40
2022-10-25T19:51:28.730Z,14.98
2022-10-25T19:53:56.372Z,11.02
2022-10-25T19:56:25.681Z,14.10
2022-10-25T19:58:54.638Z,15.38
2022-10-25T20:01:27.504Z,13.50
2022-10-25T20:04:00.093Z,13.20
2022-10-25T20:06:31.965Z,14.48
2022-10-25T20:09:01.401Z,11.80
2022-10-25T20:11:30.053Z,12.98
2022-10-25T20:13:59.491Z,12.38
2022-10-25T20:16:29.096Z,13.70
2022-10-25T20:18:59.323Z,13.52
2022-10-25T20:21:34.326Z,12.52
2022-10-25T20:24:05.210Z,14.20
2022-10-25T20:26:34.851Z,13.55
2022-10-25T20:29:05.503Z,13.15
2022-10-25T20:31:34.814Z,11.85
2022-10-25T20:35:15.466Z,13.85
2022-10-25T20:38:04.089Z,14.05
2022-10-25T20:40:35.085Z,12.52
2022-10-25T20:43:02.725Z,14.93
2022-10-25T20:45:30.916Z,13.07
2022-10-25T20:47:59.749Z,15.93
2022-10-25T20:53:44.611Z,12.30
2022-10-25T20:56:18.390Z,11.10
2022-10-25T20:58:46.955Z,13.50
2022-10-25T21:01:14.970Z,13.40
2022-10-25T21:03:42.971Z,10.25
2022-10-25T21:06:13.516Z,12.02
2022-10-25T21:08:41.470Z,12.40
2022-10-25T21:11:12.622Z,13.90
2022-10-25T21:13:40.835Z,10.70
2022-10-25T21:16:15.780Z,14.35
2022-10-25T21:18:44.622Z,10.77
2022-10-25T21:21:20.374Z,10.90
2022-10-25T21:23:48.851Z,12.15
2022-10-25T21:26:18.631Z,10.27
2022-10-25T21:28:58.193Z,12.32
2022-10-25T21:31:25.842Z,10.70
2022-10-25T21:33:56.186Z,11.27
2022-10-25T21:36:38.531Z,12.07
2022-10-25T21:39:14.576Z,9.40
2022-10-25T21:44:30.805Z,11.50
2022-10-25T21:47:06.438Z,9.75
2022-10-25T21:49:34.394Z,9.00
2022-10-25T21:52:02.083Z,10.02
2022-10-25T21:54:29.787Z,10.60
2022-10-25T21:56:57.472Z,10.05
2022-10-25T21:59:25.058Z,9.70
2022-10-25T22:01:52.818Z,10.75
2022-10-25T22:04:21.093Z,11.75
2022-10-25T22:06:48.822Z,10.75
2022-10-25T22:09:16.448Z,13.13
2022-10-25T22:11:48.191Z,12.15
2022-10-25T22:14:18.194Z,11.02
2022-10-25T22:16:50.608Z,12.60
2022-10-25T22:21:58.485Z,11.45
2022-10-25T22:24:29.511Z,12.30
2022-10-25T22:26:58.003Z,13.00
2022-10-25T22:29:27.868Z,12.98
2022-10-25T22:31:58.132Z,12.65
2022-10-25T22:34:31.510Z,9.82
2022-10-25T22:37:06.431Z,12.77
2022-10-25T22:39:39.671Z,10.98
2022-10-25T22:42:16.362Z,13.70
2022-10-25T22:44:48.735Z,12.85
2022-10-25T22:47:22.755Z,12.00
2022-10-25T22:49:53.156Z,13.63
2022-10-25T22:52:22.902Z,14.40
2022-10-25T22:54:51.882Z,13.32
2022-10-25T22:57:21.520Z,11.82
2022-10-25T22:59:51.968Z,12.55
2022-10-25T23:02:21.700Z,10.70
2022-10-25T23:04:49.442Z,11.77
2022-10-25T23:07:17.009Z,14.27
2022-10-25T23:09:44.396Z,13.25
2022-10-25T23:12:11.753Z,11.75
2022-10-25T23:14:39.164Z,11.70
2022-10-25T23:17:06.587Z,15.65
2022-10-25T23:19:33.963Z,13.77
2022-10-25T23:22:01.316Z,10.95
2022-10-25T23:24:28.691Z,13.77
2022-10-25T23:26:56.227Z,14.32
2022-10-25T23:29:23.562Z,12.48
2022-10-25T23:31:50.998Z,10.82
2022-10-25T23:34:18.337Z,17.15
2022-10-25T23:36:45.773Z,15.23
2022-10-25T23:39:13.148Z,11.18
2022-10-25T23:41:40.498Z,12.65
2022-10-25T23:44:07.913Z,13.20
2022-10-25T23:46:35.383Z,11.90
2022-10-25T23:49:02.851Z,13.27
2022-10-25T23:51:30.277Z,10.70
2022-10-25T23:53:57.600Z,10.60
2022-10-25T23:56:25.028Z,14.18
2022-10-25T23:58:53.722Z,9.50
